sensor_id;sensor_type;location;lat;lon;timestamp;pressure;altitude;pressure_sealevel;temperature;humidity
59391;BME280;53405;57.012;40.984;2023-04-26T00:02:23;98911.91;;;11.61;98.75
59391;BME280;53405;57.012;40.984;2023-04-26T00:04:54;98893.75;;;11.39;98.71
59391;BME280;53405;57.012;40.984;2023-04-26T00:07:23;98913.53;;;11.55;99.05
59391;BME280;53405;57.012;40.984;2023-04-26T00:09:51;98902.19;;;11.54;99.02
59391;BME280;53405;57.012;40.984;2023-04-26T00:12:19;98904.00;;;11.54;99.22
59391;BME280;53405;57.012;40.984;2023-04-26T00:14:48;98893.47;;;11.54;99.43
59391;BME280;53405;57.012;40.984;2023-04-26T00:17:15;98873.66;;;11.45;99.47
59391;BME280;53405;57.012;40.984;2023-04-26T00:19:43;98876.41;;;11.56;99.42
59391;BME280;53405;57.012;40.984;2023-04-26T00:22:11;98888.59;;;11.51;99.59
59391;BME280;53405;57.012;40.984;2023-04-26T00:24:39;98878.69;;;11.53;99.97
59391;BME280;53405;57.012;40.984;2023-04-26T00:27:08;98866.97;;;11.42;99.82
59391;BME280;53405;57.012;40.984;2023-04-26T00:29:37;98865.06;;;11.56;99.97
59391;BME280;53405;57.012;40.984;2023-04-26T00:32:05;98872.38;;;11.54;100.00
59391;BME280;53405;57.012;40.984;2023-04-26T00:34:33;98868.88;;;11.60;100.00
59391;BME280;53405;57.012;40.984;2023-04-26T00:37:03;98866.88;;;11.55;99.94
59391;BME280;53405;57.012;40.984;2023-04-26T00:39:31;98864.25;;;11.55;100.00
59391;BME280;53405;57.012;40.984;2023-04-26T00:41:58;98856.13;;;11.57;100.00
59391;BME280;53405;57.012;40.984;2023-04-26T00:44:26;98851.91;;;11.56;100.00
59391;BME280;53405;57.012;40.984;2023-04-26T00:46:54;98850.44;;;11.60;100.00
59391;BME280;53405;57.012;40.984;2023-04-26T00:49:23;98849.25;;;11.56;100.00
59391;BME280;53405;57.012;40.984;2023-04-26T00:51:53;98847.41;;;11.56;100.00
59391;BME280;53405;57.012;40.984;2023-04-26T00:54:21;98835.28;;;11.49;100.00
59391;BME280;53405;57.012;40.984;2023-04-26T00:56:48;98841.56;;;11.54;100.00
59391;BME280;53405;57.012;40.984;2023-04-26T00:59:19;98816.72;;;11.37;100.00
59391;BME280;53405;57.012;40.984;2023-04-26T01:01:47;98845.78;;;11.55;100.00
59391;BME280;53405;57.012;40.984;2023-04-26T01:04:16;98840.72;;;11.61;100.00
59391;BME280;53405;57.012;40.984;2023-04-26T01:06:44;98839.50;;;11.56;100.00
59391;BME280;53405;57.012;40.984;2023-04-26T01:09:12;98805.53;;;11.42;100.00
59391;BME280;53405;57.012;40.984;2023-04-26T01:11:43;98831.19;;;11.60;100.00
59391;BME280;53405;57.012;40.984;2023-04-26T01:14:11;98825.09;;;11.59;100.00
59391;BME280;53405;57.012;40.984;2023-04-26T01:16:40;98825.31;;;11.57;100.00
59391;BME280;53405;57.012;40.984;2023-04-26T01:19:11;98823.91;;;11.55;100.00
59391;BME280;53405;57.012;40.984;2023-04-26T01:21:39;98813.34;;;11.55;100.00
59391;BME280;53405;57.012;40.984;2023-04-26T01:24:09;98809.91;;;11.54;100.00
59391;BME280;53405;57.012;40.984;2023-04-26T01:26:41;98805.44;;;11.55;100.00
59391;BME280;53405;57.012;40.984;2023-04-26T01:29:17;98806.44;;;11.54;100.00
59391;BME280;53405;57.012;40.984;2023-04-26T01:31:45;98803.19;;;11.58;100.00
59391;BME280;53405;57.012;40.984;2023-04-26T01:34:13;98804.00;;;11.59;100.00
59391;BME280;53405;57.012;40.984;2023-04-26T01:36:41;98796.69;;;11.61;100.00
59391;BME280;53405;57.012;40.984;2023-04-26T01:39:09;98798.53;;;11.54;100.00
59391;BME280;53405;57.012;40.984;2023-04-26T01:41:36;98787.78;;;11.55;100.00
59391;BME280;53405;57.012;40.984;2023-04-26T01:44:04;98787.78;;;11.55;100.00
59391;BME280;53405;57.012;40.984;2023-04-26T01:46:31;98779.28;;;11.53;100.00
59391;BME280;53405;57.012;40.984;2023-04-26T01:48:59;98780.50;;;11.51;100.00
59391;BME280;53405;57.012;40.984;2023-04-26T01:51:29;98779.72;;;11.50;100.00
59391;BME280;53405;57.012;40.984;2023-04-26T01:53:57;98772.59;;;11.51;100.00
59391;BME280;53405;57.012;40.984;2023-04-26T01:56:25;98780.09;;;11.54;100.00
59391;BME280;53405;57.012;40.984;2023-04-26T01:58:53;98768.16;;;11.51;100.00
59391;BME280;53405;57.012;40.984;2023-04-26T02:01:23;98763.25;;;11.55;100.00
59391;BME280;53405;57.012;40.984;2023-04-26T02:03:51;98756.16;;;11.55;100.00
59391;BME280;53405;57.012;40.984;2023-04-26T02:06:20;98763.25;;;11.55;100.00
59391;BME280;53405;57.012;40.984;2023-04-26T02:08:48;98750.28;;;11.53;100.00
59391;BME280;53405;57.012;40.984;2023-04-26T02:11:15;98756.16;;;11.55;100.00
59391;BME280;53405;57.012;40.984;2023-04-26T02:13:44;98751.69;;;11.56;100.00
59391;BME280;53405;57.012;40.984;2023-04-26T02:16:12;98746.22;;;11.57;100.00
59391;BME280;53405;57.012;40.984;2023-04-26T02:18:42;98741.38;;;11.54;100.00
59391;BME280;53405;57.012;40.984;2023-04-26T02:21:11;98712.47;;;11.41;100.00
59391;BME280;53405;57.012;40.984;2023-04-26T02:23:39;98727.00;;;11.50;100.00
59391;BME280;53405;57.012;40.984;2023-04-26T02:26:08;98722.69;;;11.56;100.00
59391;BME280;53405;57.012;40.984;2023-04-26T02:28:36;98727.16;;;11.55;100.00
59391;BME280;53405;57.012;40.984;2023-04-26T02:31:04;98724.50;;;11.55;100.00
59391;BME280;53405;57.012;40.984;2023-04-26T02:33:32;98721.06;;;11.55;100.00
59391;BME280;53405;57.012;40.984;2023-04-26T02:36:03;98716.59;;;11.55;100.00
59391;BME280;53405;57.012;40.984;2023-04-26T02:38:35;98724.72;;;11.54;100.00
59391;BME280;53405;57.012;40.984;2023-04-26T02:41:04;98714.59;;;11.57;100.00
59391;BME280;53405;57.012;40.984;2023-04-26T02:43:33;98711.50;;;11.61;100.00
59391;BME280;53405;57.012;40.984;2023-04-26T02:46:01;98707.31;;;11.53;100.00
59391;BME280;53405;57.012;40.984;2023-04-26T02:48:30;98716.38;;;11.57;100.00
59391;BME280;53405;57.012;40.984;2023-04-26T02:50:57;98675.19;;;11.37;100.00
59391;BME280;53405;57.012;40.984;2023-04-26T02:53:25;98700.78;;;11.55;100.00
59391;BME280;53405;57.012;40.984;2023-04-26T02:55:55;98708.91;;;11.54;100.00
59391;BME280;53405;57.012;40.984;2023-04-26T02:58:23;98688.72;;;11.48;100.00
59391;BME280;53405;57.012;40.984;2023-04-26T03:00:50;98698.56;;;11.52;100.00
59391;BME280;53405;57.012;40.984;2023-04-26T03:03:19;98693.28;;;11.59;100.00
59391;BME280;53405;57.012;40.984;2023-04-26T03:05:46;98699.13;;;11.61;100.00
59391;BME280;53405;57.012;40.984;2023-04-26T03:08:14;98694.66;;;11.62;100.00
59391;BME280;53405;57.012;40.984;2023-04-26T03:10:43;98693.63;;;11.63;100.00
59391;BME280;53405;57.012;40.984;2023-04-26T03:13:14;98656.88;;;11.43;100.00
59391;BME280;53405;57.012;40.984;2023-04-26T03:15:45;98677.47;;;11.52;100.00
59391;BME280;53405;57.012;40.984;2023-04-26T03:18:13;98679.38;;;11.70;100.00
59391;BME280;53405;57.012;40.984;2023-04-26T03:20:41;98683.03;;;11.69;100.00
59391;BME280;53405;57.012;40.984;2023-04-26T03:23:09;98671.47;;;11.70;100.00
59391;BME280;53405;57.012;40.984;2023-04-26T03:25:37;98681.56;;;11.73;100.00
59391;BME280;53405;57.012;40.984;2023-04-26T03:28:05;98679.75;;;11.74;100.00
59391;BME280;53405;57.012;40.984;2023-04-26T03:30:33;98675.31;;;11.68;100.00
59391;BME280;53405;57.012;40.984;2023-04-26T03:33:02;98677.69;;;11.76;100.00
59391;BME280;53405;57.012;40.984;2023-04-26T03:35:30;98680.06;;;11.84;100.00
59391;BME280;53405;57.012;40.984;2023-04-26T03:37:58;98671.94;;;11.86;100.00
59391;BME280;53405;57.012;40.984;2023-04-26T03:40:26;98657.91;;;11.85;100.00
59391;BME280;53405;57.012;40.984;2023-04-26T03:42:55;98657.69;;;11.87;100.00
59391;BME280;53405;57.012;40.984;2023-04-26T03:45:22;98658.09;;;11.90;100.00
59391;BME280;53405;57.012;40.984;2023-04-26T03:47:53;98645.78;;;11.84;100.00
59391;BME280;53405;57.012;40.984;2023-04-26T03:50:20;98657.47;;;11.95;100.00
59391;BME280;53405;57.012;40.984;2023-04-26T03:52:49;98651.06;;;12.03;100.00
59391;BME280;53405;57.012;40.984;2023-04-26T03:55:17;98653.34;;;11.99;99.76
59391;BME280;53405;57.012;40.984;2023-04-26T03:57:46;98648.28;;;11.98;99.75
59391;BME280;53405;57.012;40.984;2023-04-26T04:00:14;98645.06;;;11.96;99.90
59391;BME280;53405;57.012;40.984;2023-04-26T04:02:44;98648.72;;;11.95;99.82
59391;BME280;53405;57.012;40.984;2023-04-26T04:05:21;98648.50;;;11.96;100.00
59391;BME280;53405;57.012;40.984;2023-04-26T04:07:49;98643.81;;;11.98;100.00
59391;BME280;53405;57.012;40.984;2023-04-26T04:10:20;98644.78;;;12.04;100.00
59391;BME280;53405;57.012;40.984;2023-04-26T04:12:50;98633.44;;;12.03;100.00
59391;BME280;53405;57.012;40.984;2023-04-26T04:15:18;98638.47;;;12.05;99.94
59391;BME280;53405;57.012;40.984;2023-04-26T04:17:47;98638.31;;;12.00;100.00
59391;BME280;53405;57.012;40.984;2023-04-26T04:20:15;98633.56;;;12.08;100.00
59391;BME280;53405;57.012;40.984;2023-04-26T04:22:43;98631.28;;;12.12;100.00
59391;BME280;53405;57.012;40.984;2023-04-26T04:25:10;98629.59;;;12.18;99.73
59391;BME280;53405;57.012;40.984;2023-04-26T04:27:40;98622.47;;;12.18;99.26
59391;BME280;53405;57.012;40.984;2023-04-26T04:30:11;98619.63;;;12.20;99.32
59391;BME280;53405;57.012;40.984;2023-04-26T04:32:40;98608.28;;;12.19;98.93
59391;BME280;53405;57.012;40.984;2023-04-26T04:35:11;98623.22;;;12.25;98.87
59391;BME280;53405;57.012;40.984;2023-04-26T04:37:40;98622.63;;;12.23;98.84
59391;BME280;53405;57.012;40.984;2023-04-26T04:40:08;98616.91;;;12.26;99.18
59391;BME280;53405;57.012;40.984;2023-04-26T04:42:38;98617.19;;;12.37;98.66
59391;BME280;53405;57.012;40.984;2023-04-26T04:45:07;98597.97;;;12.29;98.06
59391;BME280;53405;57.012;40.984;2023-04-26T04:47:38;98612.25;;;12.40;98.32
59391;BME280;53405;57.012;40.984;2023-04-26T04:50:06;98606.09;;;12.46;98.59
59391;BME280;53405;57.012;40.984;2023-04-26T04:52:34;98615.88;;;12.58;97.86
59391;BME280;53405;57.012;40.984;2023-04-26T04:55:03;98603.41;;;12.65;97.73
59391;BME280;53405;57.012;40.984;2023-04-26T04:57:32;98603.75;;;12.69;96.98
59391;BME280;53405;57.012;40.984;2023-04-26T05:00:03;98576.16;;;12.53;96.91
59391;BME280;53405;57.012;40.984;2023-04-26T05:02:42;98591.00;;;12.65;97.13
59391;BME280;53405;57.012;40.984;2023-04-26T05:05:10;98600.22;;;12.75;97.52
59391;BME280;53405;57.012;40.984;2023-04-26T05:07:38;98593.97;;;12.69;96.98
59391;BME280;53405;57.012;40.984;2023-04-26T05:10:05;98597.09;;;12.66;96.88
59391;BME280;53405;57.012;40.984;2023-04-26T05:12:33;98603.63;;;12.63;97.41
59391;BME280;53405;57.012;40.984;2023-04-26T05:15:03;98600.31;;;12.68;97.46
59391;BME280;53405;57.012;40.984;2023-04-26T05:17:33;98603.88;;;12.74;97.21
59391;BME280;53405;57.012;40.984;2023-04-26T05:20:15;98595.38;;;12.72;96.98
59391;BME280;53405;57.012;40.984;2023-04-26T05:22:42;98596.63;;;12.69;97.00
59391;BME280;53405;57.012;40.984;2023-04-26T05:25:11;98595.03;;;12.68;97.18
59391;BME280;53405;57.012;40.984;2023-04-26T05:27:41;98592.84;;;12.65;97.14
59391;BME280;53405;57.012;40.984;2023-04-26T05:30:19;98591.53;;;12.56;96.74
59391;BME280;53405;57.012;40.984;2023-04-26T05:33:23;98583.97;;;12.59;97.18
59391;BME280;53405;57.012;40.984;2023-04-26T05:36:10;98586.66;;;12.71;97.77
59391;BME280;53405;57.012;40.984;2023-04-26T05:38:38;98565.53;;;12.71;97.02
59391;BME280;53405;57.012;40.984;2023-04-26T05:41:05;98573.47;;;12.83;97.55
59391;BME280;53405;57.012;40.984;2023-04-26T05:43:33;98559.06;;;12.67;97.23
59391;BME280;53405;57.012;40.984;2023-04-26T05:46:01;98578.13;;;12.69;97.91
59391;BME280;53405;57.012;40.984;2023-04-26T05:48:28;98579.41;;;12.78;98.10
59391;BME280;53405;57.012;40.984;2023-04-26T05:50:56;98577.28;;;12.87;97.70
59391;BME280;53405;57.012;40.984;2023-04-26T05:53:25;98575.53;;;12.93;97.09
59391;BME280;53405;57.012;40.984;2023-04-26T05:56:18;98571.53;;;12.90;97.08
59391;BME280;53405;57.012;40.984;2023-04-26T05:58:46;98569.56;;;12.86;97.23
59391;BME280;53405;57.012;40.984;2023-04-26T06:01:14;98576.66;;;12.73;96.96
59391;BME280;53405;57.012;40.984;2023-04-26T06:03:44;98573.69;;;12.70;97.30
59391;BME280;53405;57.012;40.984;2023-04-26T06:06:13;98565.41;;;12.66;97.80
59391;BME280;53405;57.012;40.984;2023-04-26T06:08:42;98568.41;;;12.70;97.86
59391;BME280;53405;57.012;40.984;2023-04-26T06:11:10;98551.28;;;12.72;97.91
59391;BME280;53405;57.012;40.984;2023-04-26T06:13:38;98560.41;;;12.88;97.49
59391;BME280;53405;57.012;40.984;2023-04-26T06:16:07;98569.50;;;13.04;97.01
59391;BME280;53405;57.012;40.984;2023-04-26T06:18:35;98569.56;;;12.97;96.14
59391;BME280;53405;57.012;40.984;2023-04-26T06:21:04;98555.69;;;13.02;96.97
59391;BME280;53405;57.012;40.984;2023-04-26T06:23:31;98565.56;;;12.95;96.30
59391;BME280;53405;57.012;40.984;2023-04-26T06:25:59;98567.31;;;13.01;96.86
59391;BME280;53405;57.012;40.984;2023-04-26T06:28:27;98563.38;;;12.92;97.51
59391;BME280;53405;57.012;40.984;2023-04-26T06:30:56;98566.25;;;13.02;97.81
59391;BME280;53405;57.012;40.984;2023-04-26T06:33:24;98565.13;;;13.10;97.04
59391;BME280;53405;57.012;40.984;2023-04-26T06:35:52;98541.66;;;13.01;97.13
59391;BME280;53405;57.012;40.984;2023-04-26T06:38:20;98561.09;;;13.07;96.92
59391;BME280;53405;57.012;40.984;2023-04-26T06:40:47;98566.41;;;13.07;97.05
59391;BME280;53405;57.012;40.984;2023-04-26T06:43:18;98540.06;;;13.00;96.91
59391;BME280;53405;57.012;40.984;2023-04-26T06:45:59;98555.47;;;13.15;97.39
59391;BME280;53405;57.012;40.984;2023-04-26T06:48:27;98557.19;;;13.22;96.50
59391;BME280;53405;57.012;40.984;2023-04-26T06:50:56;98559.72;;;13.28;96.83
59391;BME280;53405;57.012;40.984;2023-04-26T06:53:23;98558.47;;;13.31;98.10
59391;BME280;53405;57.012;40.984;2023-04-26T06:55:51;98550.78;;;13.29;96.85
59391;BME280;53405;57.012;40.984;2023-04-26T06:58:20;98564.94;;;13.47;96.72
59391;BME280;53405;57.012;40.984;2023-04-26T07:00:48;98557.19;;;13.57;96.61
59391;BME280;53405;57.012;40.984;2023-04-26T07:03:15;98552.38;;;13.54;95.62
59391;BME280;53405;57.012;40.984;2023-04-26T07:05:43;98551.00;;;13.51;95.94
59391;BME280;53405;57.012;40.984;2023-04-26T07:08:11;98560.31;;;13.54;96.76
59391;BME280;53405;57.012;40.984;2023-04-26T07:10:40;98555.47;;;13.63;96.94
59391;BME280;53405;57.012;40.984;2023-04-26T07:13:07;98555.00;;;13.66;96.91
59391;BME280;53405;57.012;40.984;2023-04-26T07:15:35;98550.38;;;13.73;96.11
59391;BME280;53405;57.012;40.984;2023-04-26T07:18:03;98549.81;;;13.71;95.78
59391;BME280;53405;57.012;40.984;2023-04-26T07:20:31;98553.53;;;13.58;94.85
59391;BME280;53405;57.012;40.984;2023-04-26T07:22:59;98555.25;;;13.52;95.80
59391;BME280;53405;57.012;40.984;2023-04-26T07:25:27;98549.63;;;13.49;96.03
59391;BME280;53405;57.012;40.984;2023-04-26T07:27:54;98550.78;;;13.53;95.70
59391;BME280;53405;57.012;40.984;2023-04-26T07:30:22;98547.06;;;13.66;95.84
59391;BME280;53405;57.012;40.984;2023-04-26T07:32:50;98549.13;;;13.76;95.12
59391;BME280;53405;57.012;40.984;2023-04-26T07:35:19;98547.50;;;13.74;93.41
59391;BME280;53405;57.012;40.984;2023-04-26T07:37:47;98547.50;;;13.74;93.61
59391;BME280;53405;57.012;40.984;2023-04-26T07:40:14;98540.88;;;13.60;93.38
59391;BME280;53405;57.012;40.984;2023-04-26T07:42:42;98556.28;;;13.63;94.35
59391;BME280;53405;57.012;40.984;2023-04-26T07:45:10;98547.03;;;13.78;94.58
59391;BME280;53405;57.012;40.984;2023-04-26T07:47:39;98521.97;;;13.68;94.86
59391;BME280;53405;57.012;40.984;2023-04-26T07:50:08;98543.69;;;13.94;94.67
59391;BME280;53405;57.012;40.984;2023-04-26T07:52:35;98540.56;;;13.97;92.79
59391;BME280;53405;57.012;40.984;2023-04-26T07:55:04;98536.06;;;13.98;93.27
59391;BME280;53405;57.012;40.984;2023-04-26T07:57:32;98532.72;;;13.90;93.62
59391;BME280;53405;57.012;40.984;2023-04-26T08:00:00;98527.75;;;14.06;92.24
59391;BME280;53405;57.012;40.984;2023-04-26T08:02:38;98527.75;;;14.06;93.10
59391;BME280;53405;57.012;40.984;2023-04-26T08:05:10;98534.31;;;14.03;92.33
59391;BME280;53405;57.012;40.984;2023-04-26T08:07:38;98530.91;;;13.91;92.00
59391;BME280;53405;57.012;40.984;2023-04-26T08:10:06;98538.25;;;13.89;92.74
59391;BME280;53405;57.012;40.984;2023-04-26T08:12:37;98531.38;;;13.88;92.91
59391;BME280;53405;57.012;40.984;2023-04-26T08:15:05;98534.13;;;13.93;93.05
59391;BME280;53405;57.012;40.984;2023-04-26T08:17:34;98537.31;;;13.95;94.13
59391;BME280;53405;57.012;40.984;2023-04-26T08:20:02;98530.78;;;13.98;92.99
59391;BME280;53405;57.012;40.984;2023-04-26T08:22:32;98529.28;;;14.02;93.87
59391;BME280;53405;57.012;40.984;2023-04-26T08:25:01;98509.59;;;13.98;93.69
59391;BME280;53405;57.012;40.984;2023-04-26T08:27:29;98531.22;;;14.23;92.94
59391;BME280;53405;57.012;40.984;2023-04-26T08:30:17;98541.78;;;14.35;93.97
59391;BME280;53405;57.012;40.984;2023-04-26T08:33:04;98529.69;;;14.56;90.78
59391;BME280;53405;57.012;40.984;2023-04-26T08:35:50;98525.63;;;14.66;89.06
59391;BME280;53405;57.012;40.984;2023-04-26T08:38:36;98528.38;;;14.71;89.97
59391;BME280;53405;57.012;40.984;2023-04-26T08:41:22;98519.16;;;14.73;89.63
59391;BME280;53405;57.012;40.984;2023-04-26T08:44:09;98522.13;;;14.60;89.92
59391;BME280;53405;57.012;40.984;2023-04-26T08:50:04;98499.88;;;14.61;88.41
59391;BME280;53405;57.012;40.984;2023-04-26T08:52:51;98520.19;;;14.72;89.45
59391;BME280;53405;57.012;40.984;2023-04-26T08:55:38;98512.22;;;14.89;88.82
59391;BME280;53405;57.012;40.984;2023-04-26T08:58:23;98512.31;;;14.94;85.76
59391;BME280;53405;57.012;40.984;2023-04-26T09:01:13;98513.25;;;14.88;86.18
59391;BME280;53405;57.012;40.984;2023-04-26T09:04:00;98501.63;;;14.72;88.14
59391;BME280;53405;57.012;40.984;2023-04-26T09:06:47;98512.16;;;14.84;89.37
59391;BME280;53405;57.012;40.984;2023-04-26T09:09:35;98500.34;;;14.92;87.83
59391;BME280;53405;57.012;40.984;2023-04-26T09:12:26;98506.69;;;14.91;88.25
59391;BME280;53405;57.012;40.984;2023-04-26T09:15:14;98488.63;;;14.88;87.58
59391;BME280;53405;57.012;40.984;2023-04-26T09:18:20;98506.44;;;15.09;86.89
59391;BME280;53405;57.012;40.984;2023-04-26T09:21:14;98504.50;;;15.05;88.18
59391;BME280;53405;57.012;40.984;2023-04-26T09:24:03;98501.38;;;15.08;88.57
59391;BME280;53405;57.012;40.984;2023-04-26T09:27:01;98495.75;;;15.43;87.33
59391;BME280;53405;57.012;40.984;2023-04-26T09:29:33;98493.34;;;15.42;85.54
59391;BME280;53405;57.012;40.984;2023-04-26T09:32:01;98488.41;;;15.28;85.30
59391;BME280;53405;57.012;40.984;2023-04-26T09:34:43;98491.25;;;15.44;86.20
59391;BME280;53405;57.012;40.984;2023-04-26T09:37:13;98485.75;;;15.72;84.14
59391;BME280;53405;57.012;40.984;2023-04-26T09:39:41;98429.75;;;15.25;83.03
59391;BME280;53405;57.012;40.984;2023-04-26T09:42:09;98486.13;;;15.81;82.40
59391;BME280;53405;57.012;40.984;2023-04-26T09:44:40;98490.28;;;15.94;81.24
59391;BME280;53405;57.012;40.984;2023-04-26T09:47:10;98488.47;;;16.00;82.48
59391;BME280;53405;57.012;40.984;2023-04-26T09:49:49;98488.38;;;16.17;82.88
59391;BME280;53405;57.012;40.984;2023-04-26T09:52:18;98483.91;;;15.95;81.69
59391;BME280;53405;57.012;40.984;2023-04-26T09:54:48;98490.13;;;16.06;81.37
59391;BME280;53405;57.012;40.984;2023-04-26T09:57:17;98495.94;;;16.03;82.70
59391;BME280;53405;57.012;40.984;2023-04-26T09:59:52;98490.41;;;16.10;79.54
59391;BME280;53405;57.012;40.984;2023-04-26T10:02:26;98481.97;;;15.68;82.18
59391;BME280;53405;57.012;40.984;2023-04-26T10:04:55;98500.44;;;15.58;81.63
59391;BME280;53405;57.012;40.984;2023-04-26T10:07:24;98497.41;;;15.49;82.51
59391;BME280;53405;57.012;40.984;2023-04-26T10:09:53;98484.53;;;15.58;82.23
59391;BME280;53405;57.012;40.984;2023-04-26T10:12:21;98499.97;;;15.61;82.52
59391;BME280;53405;57.012;40.984;2023-04-26T10:14:49;98496.13;;;15.74;82.11
59391;BME280;53405;57.012;40.984;2023-04-26T10:17:18;98494.25;;;15.75;80.73
59391;BME280;53405;57.012;40.984;2023-04-26T10:19:48;98493.03;;;15.60;82.45
59391;BME280;53405;57.012;40.984;2023-04-26T10:22:22;98494.38;;;15.80;80.10
59391;BME280;53405;57.012;40.984;2023-04-26T10:24:53;98502.41;;;15.68;81.31
59391;BME280;53405;57.012;40.984;2023-04-26T10:30:10;98504.09;;;15.52;84.44
59391;BME280;53405;57.012;40.984;2023-04-26T10:35:20;98501.72;;;15.33;82.25
59391;BME280;53405;57.012;40.984;2023-04-26T10:40:33;98503.09;;;15.36;82.60
59391;BME280;53405;57.012;40.984;2023-04-26T10:45:46;98485.38;;;15.64;82.41
59391;BME280;53405;57.012;40.984;2023-04-26T10:48:15;98500.53;;;15.85;81.22
59391;BME280;53405;57.012;40.984;2023-04-26T10:53:33;98490.09;;;15.79;82.82
59391;BME280;53405;57.012;40.984;2023-04-26T10:59:13;98498.16;;;15.89;80.30
59391;BME280;53405;57.012;40.984;2023-04-26T11:01:44;98497.53;;;16.04;80.28
59391;BME280;53405;57.012;40.984;2023-04-26T11:04:12;98497.00;;;16.29;80.77
59391;BME280;53405;57.012;40.984;2023-04-26T11:06:50;98470.47;;;16.34;80.76
59391;BME280;53405;57.012;40.984;2023-04-26T11:12:13;98508.41;;;16.30;77.31
59391;BME280;53405;57.012;40.984;2023-04-26T11:14:42;98496.44;;;16.00;78.83
59391;BME280;53405;57.012;40.984;2023-04-26T11:17:11;98489.97;;;15.90;77.43
59391;BME280;53405;57.012;40.984;2023-04-26T11:19:42;98488.28;;;15.84;78.10
59391;BME280;53405;57.012;40.984;2023-04-26T11:22:12;98496.88;;;15.92;77.90
59391;BME280;53405;57.012;40.984;2023-04-26T11:24:41;98500.41;;;15.97;78.45
59391;BME280;53405;57.012;40.984;2023-04-26T11:27:12;98508.00;;;15.88;80.36
59391;BME280;53405;57.012;40.984;2023-04-26T11:29:39;98505.97;;;15.96;80.25
59391;BME280;53405;57.012;40.984;2023-04-26T11:32:07;98510.41;;;15.90;80.92
59391;BME280;53405;57.012;40.984;2023-04-26T11:34:37;98513.44;;;15.77;81.54
59391;BME280;53405;57.012;40.984;2023-04-26T11:37:06;98514.69;;;15.30;84.48
59391;BME280;53405;57.012;40.984;2023-04-26T11:39:35;98508.97;;;15.21;84.61
59391;BME280;53405;57.012;40.984;2023-04-26T11:44:32;98523.06;;;15.05;87.63
59391;BME280;53405;57.012;40.984;2023-04-26T11:47:00;98516.97;;;15.04;87.90
59391;BME280;53405;57.012;40.984;2023-04-26T11:49:30;98513.44;;;14.98;88.76
59391;BME280;53405;57.012;40.984;2023-04-26T11:51:59;98530.38;;;15.14;89.04
59391;BME280;53405;57.012;40.984;2023-04-26T11:54:29;98525.41;;;15.01;89.83
59391;BME280;53405;57.012;40.984;2023-04-26T11:56:57;98519.03;;;14.85;89.04
59391;BME280;53405;57.012;40.984;2023-04-26T11:59:26;98518.09;;;14.91;88.84
59391;BME280;53405;57.012;40.984;2023-04-26T12:01:56;98520.66;;;14.86;89.58
59391;BME280;53405;57.012;40.984;2023-04-26T12:04:28;98521.38;;;14.81;89.89
59391;BME280;53405;57.012;40.984;2023-04-26T12:06:57;98527.50;;;14.82;90.06
59391;BME280;53405;57.012;40.984;2023-04-26T12:09:29;98523.78;;;14.83;90.43
59391;BME280;53405;57.012;40.984;2023-04-26T12:11:58;98523.56;;;14.85;90.22
59391;BME280;53405;57.012;40.984;2023-04-26T12:14:34;98489.22;;;14.73;89.93
59391;BME280;53405;57.012;40.984;2023-04-26T12:17:05;98515.53;;;14.79;90.77
59391;BME280;53405;57.012;40.984;2023-04-26T12:19:37;98517.94;;;14.98;90.74
59391;BME280;53405;57.012;40.984;2023-04-26T12:22:06;98515.84;;;14.83;91.62
59391;BME280;53405;57.012;40.984;2023-04-26T12:24:35;98518.44;;;14.95;90.91
59391;BME280;53405;57.012;40.984;2023-04-26T12:27:04;98521.38;;;14.98;91.53
59391;BME280;53405;57.012;40.984;2023-04-26T12:29:33;98521.53;;;15.09;91.60
59391;BME280;53405;57.012;40.984;2023-04-26T12:32:01;98494.66;;;14.83;90.68
59391;BME280;53405;57.012;40.984;2023-04-26T12:34:30;98526.75;;;15.04;91.95
59391;BME280;53405;57.012;40.984;2023-04-26T12:36:58;98513.69;;;14.97;90.13
59391;BME280;53405;57.012;40.984;2023-04-26T12:39:26;98519.22;;;14.78;90.52
59391;BME280;53405;57.012;40.984;2023-04-26T12:41:53;98511.59;;;14.82;91.25
59391;BME280;53405;57.012;40.984;2023-04-26T12:44:21;98507.00;;;14.94;91.08
59391;BME280;53405;57.012;40.984;2023-04-26T12:46:49;98509.88;;;14.93;90.07
59391;BME280;53405;57.012;40.984;2023-04-26T12:49:17;98509.81;;;15.05;90.13
59391;BME280;53405;57.012;40.984;2023-04-26T12:51:45;98505.28;;;15.22;89.90
59391;BME280;53405;57.012;40.984;2023-04-26T12:54:12;98507.69;;;15.24;89.66
59391;BME280;53405;57.012;40.984;2023-04-26T12:56:40;98511.47;;;15.28;89.62
59391;BME280;53405;57.012;40.984;2023-04-26T12:59:10;98514.97;;;15.33;90.58
59391;BME280;53405;57.012;40.984;2023-04-26T13:01:38;98518.38;;;15.51;89.16
59391;BME280;53405;57.012;40.984;2023-04-26T13:04:06;98517.44;;;15.40;87.78
59391;BME280;53405;57.012;40.984;2023-04-26T13:06:33;98515.50;;;15.52;88.02
59391;BME280;53405;57.012;40.984;2023-04-26T13:09:02;98523.66;;;15.68;87.48
59391;BME280;53405;57.012;40.984;2023-04-26T13:11:30;98527.97;;;15.52;88.06
59391;BME280;53405;57.012;40.984;2023-04-26T13:13:57;98528.41;;;15.44;88.20
59391;BME280;53405;57.012;40.984;2023-04-26T13:16:26;98511.28;;;15.34;88.88
59391;BME280;53405;57.012;40.984;2023-04-26T13:18:53;98534.00;;;15.47;87.48
59391;BME280;53405;57.012;40.984;2023-04-26T13:21:22;98539.75;;;15.61;85.14
59391;BME280;53405;57.012;40.984;2023-04-26T13:23:49;98536.91;;;15.68;85.00
59391;BME280;53405;57.012;40.984;2023-04-26T13:26:19;98538.09;;;15.55;85.60
59391;BME280;53405;57.012;40.984;2023-04-26T13:28:48;98536.66;;;15.47;86.45
59391;BME280;53405;57.012;40.984;2023-04-26T13:31:15;98540.97;;;15.53;86.86